Time;durP1;ratioP1;P1;durP2;ratioP2;P2;SDS_P1;SDS_P2;PMS_P1;PMS_P2;Temp;Humidity;BMP_temperature;BMP_pressure;BME280_temperature;BME280_humidity;BME280_pressure;Samples;Min_cycle;Max_cycle;Signal;HPM_P1;HPM_P2
2024/04/12 00:01:17;;;;;;;5.95;3.00;;;;;;;25.23;38.92;102881.16;4601364;25;20440;-62
2024/04/12 00:03:19;;;;;;;4.53;2.53;;;;;;;25.25;38.74;102886.44;4603423;25;20012;-61
2024/04/12 00:05:21;;;;;;;5.10;2.90;;;;;;;25.27;38.78;102887.22;4603415;25;20041;-62
2024/04/12 00:07:23;;;;;;;5.60;3.00;;;;;;;25.19;38.12;102874.25;4603822;25;20013;-61
2024/04/12 00:09:25;;;;;;;;;;;;;;;25.23;38.32;102874.94;4603880;25;20494;-61
2024/04/12 00:11:27;;;;;;;5.15;3.03;;;;;;;25.17;38.41;102882.41;4601659;25;19923;-61
2024/04/12 00:13:32;;;;;;;5.20;2.58;;;;;;;25.21;38.49;102880.41;4603300;25;20001;-61
2024/04/12 00:15:34;;;;;;;4.90;2.70;;;;;;;25.21;38.93;102880.41;4601902;25;20280;-61
2024/04/12 00:17:37;;;;;;;5.70;2.80;;;;;;;25.20;38.60;102879.53;4603213;25;20004;-60
2024/04/12 00:19:40;;;;;;;5.22;2.72;;;;;;;25.19;38.70;102875.13;4603260;25;20005;-61
2024/04/12 00:21:46;;;;;;;6.13;2.83;;;;;;;25.17;38.43;102865.41;4603445;25;20071;-61
2024/04/12 00:23:48;;;;;;;5.55;2.85;;;;;;;25.24;38.38;102879.34;4603234;25;20016;-61
2024/04/12 00:25:50;;;;;;;;;;;;;;;25.23;38.41;102878.47;4603744;25;20015;-61
2024/04/12 00:27:54;;;;;;;5.97;2.50;;;;;;;25.18;38.53;102878.78;4603210;25;19930;-61
2024/04/12 00:29:56;;;;;;;5.35;2.90;;;;;;;25.23;38.00;102877.63;4602702;25;20001;-62
2024/04/12 00:32:03;;;;;;;6.15;2.55;;;;;;;25.23;38.61;102880.31;4601435;25;20855;-61
2024/04/12 00:34:07;;;;;;;5.03;2.55;;;;;;;25.20;38.27;102871.47;4603195;25;19997;-61
2024/04/12 00:36:12;;;;;;;4.85;2.58;;;;;;;25.23;38.97;102873.09;4603081;25;20001;-61
2024/04/12 00:38:16;;;;;;;5.57;2.88;;;;;;;25.19;38.27;102864.34;4603038;25;20001;-61
2024/04/12 00:40:21;;;;;;;5.63;2.70;;;;;;;25.16;38.35;102863.69;4603071;25;20458;-61
2024/04/12 00:42:31;;;;;;;4.43;2.63;;;;;;;25.17;38.80;102863.56;4602919;25;20001;-62
2024/04/12 00:44:36;;;;;;;3.97;2.45;;;;;;;25.16;39.00;102863.69;4602587;25;20004;-62
2024/04/12 00:46:40;;;;;;;5.93;2.92;;;;;;;25.18;38.53;102872.53;4603162;25;20036;-60
2024/04/12 00:48:43;;;;;;;5.50;2.65;;;;;;;25.17;38.58;102871.66;4602746;25;20001;-61
2024/04/12 00:50:46;;;;;;;6.55;2.60;;;;;;;25.19;38.42;102871.56;4602868;25;19996;-60
2024/04/12 00:52:52;;;;;;;5.43;2.85;;;;;;;25.16;38.22;102861.84;4602785;25;20438;-61
2024/04/12 00:55:13;;;;;;;5.15;2.70;;;;;;;25.22;38.74;102871.34;4602732;25;20000;-61
2024/04/12 00:57:15;;;;;;;7.30;2.97;;;;;;;25.20;38.36;102871.47;4602911;25;20005;-63
2024/04/12 00:59:17;;;;;;;;;;;;;;;25.21;38.31;102872.31;4602607;25;20471;-62
2024/04/12 01:01:24;;;;;;;6.20;2.67;;;;;;;25.16;38.60;102852.91;4602784;25;19923;-61
2024/04/12 01:03:27;;;;;;;4.72;2.60;;;;;;;25.20;38.37;102859.81;4602518;25;20069;-61
2024/04/12 01:05:29;;;;;;;7.75;2.70;;;;;;;25.17;38.70;102860.03;4602390;25;20042;-61
2024/04/12 01:07:36;;;;;;;4.78;2.60;;;;;;;25.19;38.74;102863.50;4602389;25;20001;-62
2024/04/12 01:09:38;;;;;;;5.05;2.70;;;;;;;25.11;38.95;102853.19;4602226;25;20001;-61
2024/04/12 01:11:40;;;;;;;;;;;;;;;25.15;38.36;102864.63;4603249;25;20369;-61
2024/04/12 01:13:41;;;;;;;;;;;;;;;25.11;39.17;102866.66;4602668;25;19923;-60
2024/04/12 01:15:43;;;;;;;6.78;2.55;;;;;;;25.11;38.55;102865.81;4602490;25;19930;-64
2024/04/12 01:17:46;;;;;;;;;;;;;;;25.11;38.30;102866.66;4603208;25;20001;-60
2024/04/12 01:19:48;;;;;;;4.60;2.50;;;;;;;25.06;38.67;102863.41;4602265;25;19923;-63
2024/04/12 01:21:51;;;;;;;6.53;2.63;;;;;;;25.13;38.13;102871.94;4602560;25;19997;-62
2024/04/12 01:23:55;;;;;;;6.28;2.63;;;;;;;25.14;38.15;102869.16;4602786;25;20015;-63
2024/04/12 01:25:57;;;;;;;5.50;2.67;;;;;;;25.12;38.46;102860.31;4603101;25;20064;-62
2024/04/12 01:28:02;;;;;;;;;;;;;;;25.16;38.22;102863.69;4605527;25;20587;-60
2024/04/12 01:30:07;;;;;;;5.05;2.58;;;;;;;25.08;38.32;102849.84;4605183;25;19962;-61
2024/04/12 01:32:12;;;;;;;4.82;2.60;;;;;;;25.13;39.02;102856.66;4605202;25;20081;-64
2024/04/12 01:34:14;;;;;;;5.00;2.70;;;;;;;25.14;38.75;102854.81;4603702;25;20029;-63
2024/04/12 01:36:17;;;;;;;;;;;;;;;25.14;38.29;102853.00;4605643;25;20012;-60
2024/04/12 01:38:22;;;;;;;4.95;2.42;;;;;;;25.10;38.43;102845.22;4605089;25;19922;-61
2024/04/12 01:40:25;;;;;;;4.72;2.60;;;;;;;25.03;38.50;102831.28;4605069;25;20438;-62
2024/04/12 01:42:30;;;;;;;4.82;2.38;;;;;;;25.07;38.45;102838.22;4604688;25;20486;-63
2024/04/12 01:44:32;;;;;;;4.53;2.40;;;;;;;25.09;38.89;102838.94;4604934;25;20044;-60
2024/04/12 01:46:35;;;;;;;5.18;2.55;;;;;;;25.06;38.82;102831.09;4604964;25;19997;-62
2024/04/12 01:48:37;;;;;;;4.97;2.53;;;;;;;25.01;38.83;102823.31;4605061;25;20000;-60
2024/04/12 01:50:40;;;;;;;5.90;2.63;;;;;;;25.04;38.56;102820.44;4605234;25;20417;-63
2024/04/12 01:52:55;;;;;;;6.78;2.72;;;;;;;25.09;38.83;102827.34;4604874;25;19996;-60
2024/04/12 01:55:07;;;;;;;4.72;2.30;;;;;;;25.10;38.74;102818.28;4605263;25;19997;-60
2024/04/12 01:57:08;;;;;;;4.97;2.20;;;;;;;25.10;38.89;102824.53;4604694;25;20015;-63
2024/04/12 01:59:14;;;;;;;5.47;2.40;;;;;;;25.03;38.55;102802.53;4605029;25;19997;-60
2024/04/12 02:01:17;;;;;;;4.70;2.30;;;;;;;25.10;38.60;102815.59;4604721;25;19992;-61
2024/04/12 02:03:19;;;;;;;4.82;2.13;;;;;;;24.92;38.66;102786.19;4604910;25;20379;-62
2024/04/12 02:05:37;;;;;;;5.72;2.10;;;;;;;25.10;38.67;102821.84;4604854;25;20004;-61
2024/04/12 02:07:44;;;;;;;4.78;2.40;;;;;;;25.07;38.49;102815.78;4605069;25;19997;-62
2024/04/12 02:09:48;;;;;;;6.03;2.50;;;;;;;25.07;38.93;102819.38;4604788;25;20425;-61
2024/04/12 02:11:53;;;;;;;5.25;2.30;;;;;;;25.05;38.69;102815.91;4604174;25;20490;-63
2024/04/12 02:13:57;;;;;;;5.20;2.20;;;;;;;25.06;39.04;102808.69;4604932;25;20004;-60
2024/04/12 02:16:01;;;;;;;5.18;2.20;;;;;;;25.06;38.55;102817.63;4604943;25;20001;-61
2024/04/12 02:18:03;;;;;;;5.32;2.20;;;;;;;25.05;38.53;102807.81;4604624;25;20001;-64
2024/04/12 02:20:10;;;;;;;5.43;2.40;;;;;;;25.02;38.68;102806.19;4604657;25;20473;-62
2024/04/12 02:22:11;;;;;;;3.65;1.90;;;;;;;25.04;38.16;102806.09;4602989;25;20001;-63
2024/04/12 02:24:17;;;;;;;3.65;2.17;;;;;;;25.02;38.70;102797.25;4604518;25;19996;-63
2024/04/12 02:26:19;;;;;;;4.30;2.33;;;;;;;25.01;38.63;102804.47;4604344;25;20438;-62
2024/04/12 02:28:21;;;;;;;4.40;2.17;;;;;;;25.00;38.63;102794.66;4604757;25;20003;-63
2024/04/12 02:30:23;;;;;;;4.75;2.55;;;;;;;25.07;38.62;102807.72;4604756;25;20001;-62
2024/04/12 02:32:25;;;;;;;4.68;2.20;;;;;;;25.00;38.22;102800.03;4604455;25;20001;-62
2024/04/12 02:34:29;;;;;;;4.72;2.20;;;;;;;25.01;38.53;102803.59;4604618;25;20359;-63
2024/04/12 02:36:31;;;;;;;5.05;2.05;;;;;;;24.97;38.71;102799.38;4604402;25;20000;-63
2024/04/12 02:38:32;;;;;;;3.90;1.85;;;;;;;25.03;38.83;102816.00;4603435;25;20014;-63
2024/04/12 02:40:38;;;;;;;4.63;2.22;;;;;;;24.98;38.68;102810.06;4604134;25;20506;-62
2024/04/12 02:42:43;;;;;;;4.47;2.10;;;;;;;24.96;38.86;102803.00;4602654;25;20370;-63
2024/04/12 02:44:45;;;;;;;4.07;2.20;;;;;;;25.04;38.99;102824.94;4604889;25;20001;-63
2024/04/12 02:46:47;;;;;;;5.57;2.35;;;;;;;24.99;38.97;102818.97;4604654;25;20001;-63
2024/04/12 02:48:50;;;;;;;4.45;2.25;;;;;;;24.97;38.86;102811.00;4602366;25;20369;-62
2024/04/12 02:50:55;;;;;;;3.92;2.08;;;;;;;25.02;38.20;102818.81;4604524;25;20533;-63
2024/04/12 02:52:57;;;;;;;5.38;2.28;;;;;;;25.02;38.79;102826.88;4604358;25;20012;-63
2024/04/12 02:54:59;;;;;;;3.95;2.22;;;;;;;25.04;38.63;102823.13;4604048;25;20000;-63
2024/04/12 02:57:02;;;;;;;4.10;2.00;;;;;;;25.02;38.44;102818.81;4604164;25;20000;-63
2024/04/12 02:59:05;;;;;;;4.68;2.10;;;;;;;25.02;38.82;102822.34;4604184;25;20029;-63
2024/04/12 03:01:16;;;;;;;3.70;2.00;;;;;;;24.93;39.09;102800.53;4604098;25;20012;-63
2024/04/12 03:03:17;;;;;;;4.93;2.33;;;;;;;25.01;38.91;102819.75;4602376;25;20445;-63
2024/04/12 03:05:20;;;;;;;5.80;2.38;;;;;;;25.03;38.41;102828.59;4604473;25;20015;-65
2024/04/12 03:07:23;;;;;;;3.80;1.98;;;;;;;24.99;38.75;102814.44;4604131;25;20338;-62
2024/04/12 03:09:27;;;;;;;4.40;2.10;;;;;;;24.93;38.78;102806.78;4603745;25;19997;-63
2024/04/12 03:11:34;;;;;;;3.30;1.80;;;;;;;24.97;38.08;102828.97;4604022;25;20142;-62
2024/04/12 03:13:38;;;;;;;3.80;1.90;;;;;;;24.98;38.83;102830.72;4604078;25;20072;-62
2024/04/12 03:15:40;;;;;;;5.10;2.10;;;;;;;24.98;38.96;102831.59;4604093;25;20013;-62
2024/04/12 03:17:42;;;;;;;;;;;;;;;25.00;38.45;102828.78;4602954;25;20005;-63
2024/04/12 03:19:44;;;;;;;5.97;2.30;;;;;;;24.96;39.14;102824.53;4603850;25;19929;-63
2024/04/12 03:21:50;;;;;;;;;;;;;;;24.97;38.41;102826.28;4604459;25;20360;-63
2024/04/12 03:23:55;;;;;;;4.43;2.28;;;;;;;24.67;38.51;102782.38;4603725;25;19930;-62
2024/04/12 03:25:57;;;;;;;4.60;2.13;;;;;;;24.97;38.90;102826.28;4603918;25;20007;-62
2024/04/12 03:27:58;;;;;;;;;;;;;;;24.98;38.13;102833.41;4602697;25;20012;-63
2024/04/12 03:30:00;;;;;;;4.47;2.42;;;;;;;24.88;38.29;102822.34;4604030;25;19923;-63
2024/04/12 03:32:07;;;;;;;4.25;2.35;;;;;;;24.77;38.39;102803.34;4604083;25;20004;-63
2024/04/12 03:34:09;;;;;;;4.05;2.00;;;;;;;24.91;38.44;102829.38;4603827;25;20016;-62
2024/04/12 03:36:27;;;;;;;3.78;2.10;;;;;;;24.95;38.95;102837.16;4603893;25;20009;-63
2024/04/12 03:38:30;;;;;;;4.72;2.25;;;;;;;24.94;39.05;102840.81;4603406;25;20045;-62
2024/04/12 03:40:32;;;;;;;3.78;2.20;;;;;;;24.94;38.58;102838.13;4603772;25;20015;-61
2024/04/12 03:42:34;;;;;;;7.22;2.50;;;;;;;24.92;38.13;102831.94;4603864;25;19993;-61
2024/04/12 03:44:37;;;;;;;4.18;2.22;;;;;;;24.94;38.94;102838.13;4603722;25;20012;-61
2024/04/12 03:46:41;;;;;;;4.60;2.38;;;;;;;24.96;38.12;102838.00;4603593;25;20025;-62
2024/04/12 03:48:42;;;;;;;5.18;2.58;;;;;;;24.94;38.88;102840.81;4603450;25;20009;-62
2024/04/12 03:50:48;;;;;;;4.55;2.20;;;;;;;24.92;38.24;102829.25;4603739;25;20394;-61
2024/04/12 03:52:53;;;;;;;4.40;2.42;;;;;;;24.92;38.15;102821.19;4602683;25;20012;-61
2024/04/12 03:55:08;;;;;;;4.78;2.30;;;;;;;24.93;38.88;102825.59;4603436;25;20004;-61
2024/04/12 03:57:12;;;;;;;5.65;2.22;;;;;;;24.91;38.04;102822.19;4603085;25;20435;-61
2024/04/12 03:59:13;;;;;;;4.93;2.17;;;;;;;24.94;38.08;102821.97;4602909;25;19997;-61
2024/04/12 04:01:15;;;;;;;5.72;2.65;;;;;;;24.92;38.04;102825.72;4602772;25;20296;-61
2024/04/12 04:03:32;;;;;;;;;;;;;;;24.93;38.68;102820.22;4603995;25;20015;-61
2024/04/12 04:05:35;;;;;;;3.97;2.38;;;;;;;24.85;39.12;102818.03;4602935;25;20072;-60
2024/04/12 04:07:38;;;;;;;5.03;2.28;;;;;;;24.87;38.23;102818.81;4602501;25;20028;-60
2024/04/12 04:09:40;;;;;;;4.70;2.50;;;;;;;24.89;38.93;102816.00;4601439;25;20454;-60
2024/04/12 04:11:42;;;;;;;5.82;2.58;;;;;;;24.85;38.71;102817.19;4603005;25;20012;-61
2024/04/12 04:13:47;;;;;;;5.13;2.30;;;;;;;24.86;38.12;102821.56;4603150;25;20045;-61
2024/04/12 04:15:55;;;;;;;4.47;2.15;;;;;;;24.90;38.32;102822.25;4602794;25;20052;-60
2024/04/12 04:17:57;;;;;;;4.13;2.20;;;;;;;24.87;38.51;102816.13;4602842;25;20091;-60
2024/04/12 04:20:05;;;;;;;5.10;2.33;;;;;;;24.81;38.50;102803.06;4600895;25;20001;-60
2024/04/12 04:22:39;;;;;;;4.05;2.33;;;;;;;24.87;38.64;102823.31;4600455;25;20392;-61
2024/04/12 04:24:41;;;;;;;4.40;2.28;;;;;;;24.91;38.81;102823.97;4602872;25;20009;-61
2024/04/12 04:26:43;;;;;;;;;;;;;;;24.91;38.95;102821.28;4603471;25;20004;-62
2024/04/12 04:28:44;;;;;;;4.38;2.15;;;;;;;24.83;38.66;102814.56;4602750;25;19923;-61
2024/04/12 04:30:48;;;;;;;4.63;2.30;;;;;;;24.88;38.96;102817.81;4602505;25;20001;-62
2024/04/12 04:32:49;;;;;;;;;;;;;;;24.87;38.95;102823.31;4603503;25;20383;-61
2024/04/12 04:34:54;;;;;;;6.00;2.60;;;;;;;24.83;38.92;102811.88;4602688;25;19930;-61
2024/04/12 04:36:56;;;;;;;5.78;2.47;;;;;;;24.85;38.77;102818.03;4602575;25;20008;-61
2024/04/12 04:39:01;;;;;;;6.40;2.33;;;;;;;24.83;38.70;102819.09;4602283;25;20001;-61
2024/04/12 04:41:07;;;;;;;4.45;2.28;;;;;;;24.84;38.59;102826.22;4602529;25;20011;-61
2024/04/12 04:43:08;;;;;;;4.70;2.33;;;;;;;24.86;38.82;102826.97;4602997;25;20030;-61
2024/04/12 04:45:17;;;;;;;5.32;2.35;;;;;;;24.83;38.48;102822.63;4601063;25;20068;-61
2024/04/12 04:47:23;;;;;;;4.63;2.30;;;;;;;24.83;38.11;102824.47;4602621;25;20040;-61
2024/04/12 04:49:25;;;;;;;5.15;2.17;;;;;;;24.86;38.51;102827.84;4602443;25;20053;-61
2024/04/12 04:51:27;;;;;;;5.35;2.50;;;;;;;24.84;38.71;102824.38;4601957;25;20015;-61
2024/04/12 04:53:29;;;;;;;5.10;2.40;;;;;;;24.78;38.97;102818.53;4602572;25;20011;-61
2024/04/12 04:55:32;;;;;;;4.60;2.30;;;;;;;24.85;38.33;102822.56;4602230;25;20372;-62
2024/04/12 04:57:35;;;;;;;4.93;2.47;;;;;;;24.86;38.57;102827.84;4602554;25;20001;-61
2024/04/12 04:59:37;;;;;;;4.40;2.38;;;;;;;24.85;38.33;102830.63;4602076;25;19996;-62
2024/04/12 05:01:39;;;;;;;5.00;2.30;;;;;;;24.78;38.44;102808.63;4601503;25;20000;-62
2024/04/12 05:03:41;;;;;;;5.03;2.47;;;;;;;24.85;38.19;102825.25;4602207;25;20063;-62
2024/04/12 05:05:43;;;;;;;4.57;2.17;;;;;;;24.82;38.95;102822.75;4601641;25;20068;-61
2024/04/12 05:07:45;;;;;;;;;;;;;;;24.81;38.21;102829.97;4602656;25;20012;-61
2024/04/12 05:09:53;;;;;;;4.65;2.45;;;;;;;24.78;38.83;102823.91;4602079;25;19923;-61
2024/04/12 05:11:55;;;;;;;4.78;2.50;;;;;;;24.80;38.76;102827.34;4602191;25;20005;-64
2024/04/12 05:14:13;;;;;;;4.13;2.20;;;;;;;24.79;38.09;102825.63;4601902;25;20403;-62
2024/04/12 05:16:19;;;;;;;4.82;2.60;;;;;;;24.81;39.02;102827.28;4602124;25;20447;-61
2024/04/12 05:18:21;;;;;;;5.53;2.83;;;;;;;24.82;38.85;102826.28;4602185;25;20072;-62
2024/04/12 05:20:38;;;;;;;4.57;2.20;;;;;;;24.79;38.44;102820.22;4601380;25;20037;-61
2024/04/12 05:22:41;;;;;;;5.00;2.50;;;;;;;24.82;38.08;102825.44;4601957;25;20459;-62
2024/04/12 05:24:43;;;;;;;5.65;2.85;;;;;;;24.83;38.53;102829.88;4601956;25;20071;-61
2024/04/12 05:26:45;;;;;;;4.85;2.60;;;;;;;24.82;38.48;102833.50;4602056;25;20038;-61
2024/04/12 05:28:48;;;;;;;5.10;2.70;;;;;;;24.80;38.80;102830.03;4601788;25;20012;-62
2024/04/12 05:30:50;;;;;;;5.13;2.40;;;;;;;24.80;38.54;102832.72;4601906;25;20001;-61
2024/04/12 05:32:53;;;;;;;4.43;2.40;;;;;;;24.79;38.28;102836.38;4569653;25;20449;-62
2024/04/12 05:34:58;;;;;;;5.03;2.60;;;;;;;24.78;38.61;102840.06;4601612;25;20001;-62
2024/04/12 05:37:03;;;;;;;5.45;2.40;;;;;;;24.81;38.35;102847.94;4601627;25;20450;-61
2024/04/12 05:39:11;;;;;;;6.28;2.75;;;;;;;24.78;37.92;102854.38;4601536;25;20008;-61
2024/04/12 05:41:15;;;;;;;7.03;2.60;;;;;;;24.81;38.63;102856.00;4600139;25;20001;-62
2024/04/12 05:43:17;;;;;;;4.90;2.80;;;;;;;24.78;38.34;102846.28;4601723;25;20011;-62
2024/04/12 05:45:20;;;;;;;4.95;2.60;;;;;;;24.81;38.65;102856.88;4601710;25;20000;-61
2024/04/12 05:47:21;;;;;;;5.35;2.50;;;;;;;24.79;38.50;102850.72;4601595;25;20009;-62
2024/04/12 05:49:24;;;;;;;5.18;2.40;;;;;;;24.79;38.50;102855.22;4601090;25;20009;-61
2024/04/12 05:51:26;;;;;;;5.47;2.53;;;;;;;24.78;38.95;102848.13;4601489;25;20451;-62
2024/04/12 05:53:30;;;;;;;4.75;2.40;;;;;;;24.82;38.79;102852.34;4601566;25;20012;-62
2024/04/12 05:55:43;;;;;;;5.00;2.60;;;;;;;24.82;38.32;102852.34;4601433;25;20111;-62
2024/04/12 05:57:50;;;;;;;6.18;2.60;;;;;;;24.81;38.71;102856.88;4601396;25;20013;-62
2024/04/12 05:59:54;;;;;;;5.28;2.45;;;;;;;24.79;38.87;102861.47;4601178;25;20462;-61
2024/04/12 06:01:56;;;;;;;4.25;2.35;;;;;;;24.79;38.82;102860.59;4601393;25;20406;-62
2024/04/12 06:03:59;;;;;;;5.25;2.22;;;;;;;24.78;38.42;102856.22;4600917;25;20000;-61
2024/04/12 06:06:06;;;;;;;5.88;2.40;;;;;;;24.74;38.56;102852.84;4601425;25;20009;-61
2024/04/12 06:08:12;;;;;;;5.50;2.58;;;;;;;24.81;38.60;102866.75;4601202;25;20041;-61
2024/04/12 06:10:17;;;;;;;5.78;2.90;;;;;;;24.80;39.04;102859.66;4599512;25;20470;-62
2024/04/12 06:12:19;;;;;;;6.60;3.05;;;;;;;24.80;38.27;102859.66;4601300;25;20000;-61
2024/04/12 06:14:23;;;;;;;5.07;2.58;;;;;;;24.80;38.82;102863.22;4603914;25;20005;-62
2024/04/12 06:16:25;;;;;;;5.30;2.53;;;;;;;24.80;38.56;102865.91;4604463;25;20004;-61
2024/04/12 06:18:26;;;;;;;6.78;2.67;;;;;;;24.78;38.94;102861.59;4604050;25;19996;-61
2024/04/12 06:20:30;;;;;;;;;;;;;;;24.81;38.14;102872.16;4605005;25;20477;-61
2024/04/12 06:22:34;;;;;;;6.03;2.50;;;;;;;24.79;38.69;102874.94;4604013;25;20368;-62
2024/04/12 06:24:37;;;;;;;6.35;2.67;;;;;;;24.79;38.40;102868.69;4604455;25;20008;-62
2024/04/12 06:26:39;;;;;;;4.95;2.63;;;;;;;24.80;38.29;102873.97;4604461;25;20072;-62
2024/04/12 06:28:44;;;;;;;5.68;2.60;;;;;;;24.80;39.06;102871.28;4604275;25;20013;-62
2024/04/12 06:30:48;;;;;;;5.32;2.80;;;;;;;24.82;38.69;102863.97;4604352;25;20001;-61
2024/04/12 06:32:53;;;;;;;4.55;2.40;;;;;;;24.81;38.23;102869.44;4603591;25;20514;-62
2024/04/12 06:34:55;;;;;;;6.15;2.80;;;;;;;24.80;38.82;102865.03;4604633;25;20032;-62
2024/04/12 06:36:57;;;;;;;5.40;2.60;;;;;;;24.79;38.68;102865.97;4604381;25;20013;-61
2024/04/12 06:39:04;;;;;;;5.60;2.58;;;;;;;24.81;38.48;102870.34;4604159;25;20016;-62
2024/04/12 06:41:10;;;;;;;4.80;2.30;;;;;;;24.80;38.61;102870.41;4604058;25;20008;-62
2024/04/12 06:43:13;;;;;;;5.78;2.58;;;;;;;24.82;38.79;102876.56;4604120;25;20414;-62
2024/04/12 06:45:17;;;;;;;5.68;2.50;;;;;;;24.82;38.81;102881.94;4604021;25;20450;-61
2024/04/12 06:47:19;;;;;;;;;;;;;;;24.83;39.17;102879.16;4604154;25;20013;-61
2024/04/12 06:49:27;;;;;;;5.60;2.47;;;;;;;24.80;38.91;102879.38;4603953;25;19935;-61
2024/04/12 06:51:29;;;;;;;4.90;2.58;;;;;;;24.81;38.75;102869.44;4603917;25;20062;-62
2024/04/12 06:53:34;;;;;;;;;;;;;;;24.85;39.06;102876.41;4604400;25;20007;-61
2024/04/12 06:55:45;;;;;;;4.90;2.60;;;;;;;24.80;38.84;102887.44;4604075;25;19922;-61
2024/04/12 06:57:52;;;;;;;5.43;2.28;;;;;;;24.81;38.77;102889.19;4603906;25;20004;-62
2024/04/12 07:00:00;;;;;;;4.72;2.20;;;;;;;24.80;38.92;102881.19;4603958;25;20004;-62
2024/04/12 07:02:05;;;;;;;4.95;2.50;;;;;;;24.83;38.95;102883.69;4603586;25;20375;-61
2024/04/12 07:04:07;;;;;;;5.28;2.47;;;;;;;24.75;39.13;102873.38;4603687;25;19992;-61
2024/04/12 07:06:16;;;;;;;5.35;2.50;;;;;;;24.84;38.68;102890.81;4603809;25;20008;-62
2024/04/12 07:08:18;;;;;;;5.90;2.33;;;;;;;24.85;38.67;102887.16;4603925;25;20072;-61
2024/04/12 07:10:20;;;;;;;;;;;;;;;24.84;38.54;102897.03;4602497;25;20053;-61
2024/04/12 07:12:22;;;;;;;5.53;2.17;;;;;;;24.80;38.81;102883.88;4603910;25;19985;-61
2024/04/12 07:14:26;;;;;;;4.45;2.28;;;;;;;24.86;39.09;102891.56;4603659;25;20016;-62
2024/04/12 07:16:31;;;;;;;5.03;2.42;;;;;;;24.78;39.25;102878.59;4603599;25;20007;-62
2024/04/12 07:18:33;;;;;;;4.75;2.40;;;;;;;24.87;38.51;102886.09;4601812;25;20037;-62
2024/04/12 07:20:38;;;;;;;5.80;2.30;;;;;;;24.90;38.70;102889.53;4603320;25;20000;-62
2024/04/12 07:22:40;;;;;;;4.65;2.35;;;;;;;24.85;38.35;102882.63;4603236;25;20087;-62
2024/04/12 07:24:42;;;;;;;;;;;;;;;24.90;39.06;102895.81;4603521;25;20109;-61
2024/04/12 07:26:47;;;;;;;5.07;2.10;;;;;;;24.85;38.95;102887.16;4603713;25;19923;-61
2024/04/12 07:28:49;;;;;;;4.82;2.13;;;;;;;24.89;39.28;102886.00;4603277;25;20000;-62
2024/04/12 07:30:53;;;;;;;4.63;2.08;;;;;;;24.89;38.37;102886.00;4601009;25;20069;-62
2024/04/12 07:32:55;;;;;;;3.70;1.90;;;;;;;24.89;38.69;102883.31;4603801;25;20067;-61
2024/04/12 07:35:09;;;;;;;4.82;2.13;;;;;;;24.90;38.50;102893.13;4603438;25;20016;-61
2024/04/12 07:37:12;;;;;;;4.55;2.05;;;;;;;24.89;38.88;102888.69;4603248;25;20009;-62
2024/04/12 07:39:15;;;;;;;5.10;2.20;;;;;;;24.93;38.78;102884.84;4603070;25;19993;-62
2024/04/12 07:41:18;;;;;;;5.68;2.30;;;;;;;24.96;38.18;102889.16;4601188;25;20012;-61
2024/04/12 07:43:23;;;;;;;4.07;1.90;;;;;;;24.92;38.43;102875.03;4603509;25;20003;-62
2024/04/12 07:45:25;;;;;;;5.63;2.00;;;;;;;24.94;38.85;102869.56;4602884;25;20008;-61
2024/04/12 07:47:29;;;;;;;4.50;2.10;;;;;;;24.95;38.37;102872.16;4603276;25;20005;-61
2024/04/12 07:49:40;;;;;;;5.57;2.08;;;;;;;24.96;39.10;102881.97;4602979;25;20008;-61
2024/04/12 07:51:45;;;;;;;4.35;2.13;;;;;;;24.98;38.88;102877.34;4601734;25;20001;-62
2024/04/12 07:53:47;;;;;;;4.55;1.90;;;;;;;24.98;38.34;102874.66;4603029;25;20015;-62
2024/04/12 07:56:14;;;;;;;4.97;2.00;;;;;;;25.00;39.21;102880.78;4603441;25;20054;-61
2024/04/12 07:58:17;;;;;;;4.78;2.13;;;;;;;24.99;38.98;102880.91;4602625;25;20001;-62
2024/04/12 08:00:35;;;;;;;4.15;2.00;;;;;;;24.96;38.28;102868.50;4603158;25;19997;-61
2024/04/12 08:02:37;;;;;;;5.93;2.20;;;;;;;24.98;39.03;102869.28;4603341;25;20068;-61
2024/04/12 08:04:45;;;;;;;4.70;2.05;;;;;;;25.01;38.82;102871.75;4603306;25;19997;-61
2024/04/12 08:06:57;;;;;;;5.60;2.30;;;;;;;25.02;38.27;102870.81;4603113;25;20011;-61
2024/04/12 08:09:05;;;;;;;6.18;2.38;;;;;;;25.03;38.80;102874.34;4603025;25;19996;-65
2024/04/12 08:13:37;;;;;;;5.93;2.20;;;;;;;25.06;38.16;102876.00;4602949;25;20008;-63
2024/04/12 08:15:42;;;;;;;5.15;2.05;;;;;;;25.08;38.63;102883.03;4603063;25;19997;-61
2024/04/12 08:17:48;;;;;;;6.07;2.33;;;;;;;25.13;38.84;102888.09;4603066;25;20079;-61
2024/04/12 08:19:55;;;;;;;4.78;2.40;;;;;;;25.16;38.33;102890.59;4602935;25;20001;-62
2024/04/12 08:21:57;;;;;;;5.18;1.88;;;;;;;25.16;38.22;102886.06;4602565;25;20001;-63
2024/04/12 08:24:07;;;;;;;4.40;1.73;;;;;;;25.17;38.88;102885.09;4602871;25;20000;-61
2024/04/12 08:26:16;;;;;;;5.90;1.88;;;;;;;25.19;38.55;102895.81;4603051;25;19997;-62
2024/04/12 08:28:18;;;;;;;5.65;2.15;;;;;;;25.12;38.25;102891.78;4602274;25;20332;-62
2024/04/12 08:30:20;;;;;;;5.53;1.98;;;;;;;25.16;38.74;102893.28;4602939;25;20012;-63
2024/04/12 08:32:31;;;;;;;3.97;1.88;;;;;;;25.18;38.99;102892.22;4600654;25;20016;-63
2024/04/12 08:34:34;;;;;;;5.13;1.98;;;;;;;25.19;38.98;102890.44;4602690;25;19997;-63
2024/04/12 08:36:36;;;;;;;6.03;2.10;;;;;;;25.21;38.28;102896.56;4601057;25;20478;-63
2024/04/12 08:38:53;;;;;;;5.32;2.25;;;;;;;25.22;38.81;102887.53;4602602;25;20004;-62
2024/04/12 08:41:08;;;;;;;5.85;2.20;;;;;;;25.17;38.09;102886.94;4602485;25;20012;-62
2024/04/12 08:43:15;;;;;;;4.30;2.00;;;;;;;25.24;38.56;102891.00;4602092;25;20000;-63
2024/04/12 08:45:18;;;;;;;5.07;1.80;;;;;;;25.27;38.97;102890.78;4602572;25;20033;-62
2024/04/12 08:49:32;;;;;;;4.13;2.08;;;;;;;25.29;38.27;102888.84;4602137;25;20001;-62
2024/04/12 08:51:34;;;;;;;5.13;2.10;;;;;;;25.29;38.60;102888.00;4602532;25;20342;-63
2024/04/12 08:53:44;;;;;;;6.38;1.90;;;;;;;25.27;38.48;102885.38;4602686;25;20015;-62
2024/04/12 08:55:46;;;;;;;4.82;2.00;;;;;;;25.29;38.77;102888.00;4602595;25;20014;-63
2024/04/12 08:57:52;;;;;;;;;;;;;;;25.27;38.10;102887.22;4602622;25;20000;-62
2024/04/12 09:00:00;;;;;;;4.47;1.80;;;;;;;25.26;38.47;102880.09;4602127;25;19934;-63
2024/04/12 09:02:07;;;;;;;4.28;1.88;;;;;;;25.27;38.78;102882.69;4602626;25;20015;-62
2024/04/12 09:04:14;;;;;;;4.75;1.80;;;;;;;25.28;38.15;102881.75;4602194;25;20001;-63
2024/04/12 09:06:23;;;;;;;5.53;1.90;;;;;;;25.17;39.00;102873.50;4602661;25;20015;-62
2024/04/12 09:08:28;;;;;;;3.75;1.95;;;;;;;25.29;38.79;102880.78;4602401;25;20000;-62
2024/04/12 09:10:35;;;;;;;5.25;2.22;;;;;;;25.33;38.21;102881.44;4601618;25;20008;-64
2024/04/12 09:12:37;;;;;;;4.22;1.77;;;;;;;25.35;38.30;102879.53;4602031;25;20001;-62
2024/04/12 09:14:44;;;;;;;5.97;2.10;;;;;;;25.37;38.21;102880.28;4602069;25;20009;-63
2024/04/12 09:16:48;;;;;;;5.97;2.05;;;;;;;25.36;38.55;102875.88;4600381;25;19992;-63
2024/04/12 09:18:51;;;;;;;6.28;2.13;;;;;;;25.38;38.18;102875.78;4602347;25;20009;-62
2024/04/12 09:21:05;;;;;;;5.00;2.00;;;;;;;25.42;38.17;102877.31;4602094;25;20346;-63
2024/04/12 09:23:14;;;;;;;5.57;2.08;;;;;;;25.39;38.43;102883.78;4601944;25;20054;-62
2024/04/12 09:25:25;;;;;;;5.38;2.10;;;;;;;25.40;38.35;102881.97;4599797;25;20080;-62
2024/04/12 09:27:34;;;;;;;;;;;;;;;25.40;38.74;102885.50;4602393;25;19993;-64
2024/04/12 09:29:47;;;;;;;5.43;1.80;;;;;;;25.34;38.88;102873.25;4601785;25;20286;-62
2024/04/12 09:34:22;;;;;;;4.40;1.80;;;;;;;25.39;38.79;102885.63;4601467;25;20395;-63
2024/04/12 09:36:52;;;;;;;3.50;1.60;;;;;;;25.36;38.59;102879.41;4600149;25;20017;-61
2024/04/12 09:38:59;;;;;;;4.68;1.90;;;;;;;25.40;38.55;102890.03;4601512;25;20020;-62
2024/04/12 09:41:13;;;;;;;4.95;1.90;;;;;;;25.40;38.85;102890.03;4601291;25;20001;-61
2024/04/12 09:45:21;;;;;;;5.03;1.80;;;;;;;25.45;38.65;102894.16;4601815;25;20020;-62
2024/04/12 10:37:23;;;;;;;3.13;1.48;;;;;;;25.58;38.34;102879.88;4570578;26;20073;-62
2024/04/12 10:39:33;;;;;;;3.78;1.45;;;;;;;25.59;38.02;102871.72;4569991;26;20323;-63
2024/04/12 10:41:35;;;;;;;6.00;1.67;;;;;;;25.60;38.21;102876.13;4570439;26;19997;-63
2024/04/12 10:43:43;;;;;;;3.97;1.50;;;;;;;25.64;37.53;102876.81;4570798;26;20008;-62